SIA155 VDPP-WSSS
Flight info
| Callsign | SIA155 |
|---|---|
| Flight time | 1h 43m |
| Altitude | 40000 |
| Route | CONDA2 KISAN M755 BITOD/K0895F410 M753 IPRIX/N0484F410 Q802 ELALO ELALO1A |
| Aircraft | A359/H-SDE1E2E3GHIJ1J2J3J5M1P2RWXYZ/LB1D1 |
Departure
| Time | 2026-04-25 03:55 |
|---|---|
| Airport | Phnom Penh International Airport (VDPP) |
Arrival
| Time | 2026-04-25 05:38 |
|---|---|
| Airport | Singapore Changi Airport (WSSS) |
| Time | Latitude | Longitude | Altitude | Speed | Heading |
|---|---|---|---|---|---|
| 2026-04-25 03:05 | 11.55203 | 104.84570 | 44 ft | 0 kts | 327° |
| 2026-04-25 03:19 | 11.55202 | 104.84570 | 47 ft | 2 kts | 327° |
| 2026-04-25 03:19 | 11.55200 | 104.84572 | 47 ft | 0 kts | 327° |
| 2026-04-25 03:19 | 11.55187 | 104.84580 | 46 ft | 2 kts | 328° |
| 2026-04-25 03:20 | 11.55173 | 104.84590 | 48 ft | 2 kts | 313° |
| 2026-04-25 03:20 | 11.55166 | 104.84604 | 43 ft | 2 kts | 271° |
| 2026-04-25 03:20 | 11.55169 | 104.84620 | 44 ft | 2 kts | 236° |
| 2026-04-25 03:20 | 11.55173 | 104.84625 | 45 ft | 0 kts | 226° |
| 2026-04-25 03:45 | 11.55172 | 104.84624 | 52 ft | 1 kts | 226° |
| 2026-04-25 03:45 | 11.55155 | 104.84610 | 43 ft | 4 kts | 215° |
| 2026-04-25 03:46 | 11.55121 | 104.84597 | 43 ft | 6 kts | 194° |
| 2026-04-25 03:46 | 11.55072 | 104.84593 | 43 ft | 8 kts | 177° |
| 2026-04-25 03:46 | 11.55018 | 104.84615 | 42 ft | 9 kts | 142° |
| 2026-04-25 03:46 | 11.55003 | 104.84628 | 42 ft | 0 kts | 139° |
| 2026-04-25 03:47 | 11.54985 | 104.84643 | 44 ft | 3 kts | 139° |
| 2026-04-25 03:47 | 11.54985 | 104.84644 | 44 ft | 0 kts | 139° |
| 2026-04-25 03:48 | 11.54955 | 104.84680 | 43 ft | 12 kts | 117° |
| 2026-04-25 03:48 | 11.54976 | 104.84745 | 44 ft | 11 kts | 47° |
| 2026-04-25 03:48 | 11.55033 | 104.84805 | 43 ft | 13 kts | 44° |
| 2026-04-25 03:49 | 11.55105 | 104.84877 | 44 ft | 16 kts | 44° |
| 2026-04-25 03:49 | 11.55185 | 104.84960 | 45 ft | 17 kts | 44° |
| 2026-04-25 03:49 | 11.55276 | 104.85053 | 44 ft | 20 kts | 48° |
| 2026-04-25 03:49 | 11.55376 | 104.85161 | 43 ft | 22 kts | 46° |
| 2026-04-25 03:50 | 11.55474 | 104.85263 | 41 ft | 15 kts | 44° |
| 2026-04-25 03:50 | 11.55531 | 104.85345 | 42 ft | 12 kts | 66° |
| 2026-04-25 03:50 | 11.55551 | 104.85389 | 43 ft | 5 kts | 50° |
| 2026-04-25 03:50 | 11.55579 | 104.85395 | 40 ft | 4 kts | 350° |
| 2026-04-25 03:51 | 11.55594 | 104.85374 | 41 ft | 4 kts | 284° |
| 2026-04-25 03:51 | 11.55586 | 104.85361 | 43 ft | 1 kts | 225° |
| 2026-04-25 03:51 | 11.55585 | 104.85361 | 43 ft | 0 kts | 220° |
| 2026-04-25 03:51 | 11.55576 | 104.85356 | 41 ft | 5 kts | 211° |
| 2026-04-25 03:52 | 11.55544 | 104.85332 | 41 ft | 6 kts | 221° |
| 2026-04-25 03:52 | 11.55540 | 104.85327 | 40 ft | 0 kts | 224° |
| 2026-04-25 03:54 | 11.55396 | 104.85180 | 43 ft | 67 kts | 226° |
| 2026-04-25 03:54 | 11.54903 | 104.84668 | 42 ft | 133 kts | 225° |
| 2026-04-25 03:54 | 11.54122 | 104.83862 | 212 ft | 174 kts | 223° |
| 2026-04-25 03:55 | 11.53372 | 104.82908 | 984 ft | 170 kts | 238° |
| 2026-04-25 03:55 | 11.52499 | 104.82142 | 1568 ft | 170 kts | 195° |
| 2026-04-25 03:55 | 11.51292 | 104.82193 | 1822 ft | 183 kts | 168° |
| 2026-04-25 03:55 | 11.49968 | 104.82440 | 2052 ft | 206 kts | 172° |
| 2026-04-25 03:56 | 11.48474 | 104.82530 | 2269 ft | 213 kts | 179° |
| 2026-04-25 03:56 | 11.47057 | 104.82479 | 2558 ft | 200 kts | 182° |
| 2026-04-25 03:56 | 11.45665 | 104.82371 | 2854 ft | 201 kts | 183° |
| 2026-04-25 03:56 | 11.44277 | 104.82233 | 3144 ft | 202 kts | 184° |
| 2026-04-25 03:57 | 11.42876 | 104.82074 | 3428 ft | 203 kts | 184° |
| 2026-04-25 03:57 | 11.41471 | 104.81901 | 3726 ft | 204 kts | 184° |
| 2026-04-25 03:57 | 11.40066 | 104.81725 | 4007 ft | 204 kts | 184° |
| 2026-04-25 03:57 | 11.38654 | 104.81546 | 4299 ft | 205 kts | 184° |
| 2026-04-25 03:58 | 11.37232 | 104.81364 | 4596 ft | 207 kts | 183° |
| 2026-04-25 03:58 | 11.35802 | 104.81181 | 4882 ft | 208 kts | 183° |
| 2026-04-25 03:58 | 11.34366 | 104.80995 | 5166 ft | 209 kts | 183° |
| 2026-04-25 03:58 | 11.32922 | 104.80808 | 5442 ft | 211 kts | 184° |
| 2026-04-25 03:59 | 11.31465 | 104.80569 | 5742 ft | 213 kts | 186° |
| 2026-04-25 03:59 | 11.30002 | 104.80308 | 6030 ft | 214 kts | 186° |
| 2026-04-25 03:59 | 11.28530 | 104.80050 | 6321 ft | 215 kts | 186° |
| 2026-04-25 03:59 | 11.27050 | 104.79796 | 6605 ft | 217 kts | 186° |
| 2026-04-25 04:00 | 11.25557 | 104.79542 | 6867 ft | 218 kts | 186° |
| 2026-04-25 04:00 | 11.24060 | 104.79288 | 7155 ft | 218 kts | 186° |
| 2026-04-25 04:00 | 11.22563 | 104.79035 | 7428 ft | 218 kts | 186° |
| 2026-04-25 04:00 | 11.21063 | 104.78782 | 7724 ft | 219 kts | 186° |
| 2026-04-25 04:01 | 11.19553 | 104.78528 | 8004 ft | 221 kts | 187° |
| 2026-04-25 04:01 | 11.18036 | 104.78272 | 8293 ft | 222 kts | 187° |
| 2026-04-25 04:01 | 11.16512 | 104.78015 | 8594 ft | 222 kts | 187° |
| 2026-04-25 04:01 | 11.14979 | 104.77758 | 8867 ft | 223 kts | 187° |
| 2026-04-25 04:02 | 11.13446 | 104.77500 | 9172 ft | 224 kts | 187° |
| 2026-04-25 04:02 | 11.11903 | 104.77240 | 9469 ft | 225 kts | 187° |
| 2026-04-25 04:02 | 11.10358 | 104.76981 | 9729 ft | 225 kts | 187° |
| 2026-04-25 04:02 | 11.08837 | 104.76726 | 9963 ft | 224 kts | 187° |
| 2026-04-25 04:03 | 11.07294 | 104.76469 | 10191 ft | 225 kts | 187° |
| 2026-04-25 04:03 | 11.05742 | 104.76209 | 10430 ft | 226 kts | 187° |
| 2026-04-25 04:03 | 11.04184 | 104.75950 | 10664 ft | 228 kts | 187° |
| 2026-04-25 04:03 | 11.02596 | 104.75687 | 10880 ft | 229 kts | 187° |
| 2026-04-25 04:04 | 11.01043 | 104.75423 | 11114 ft | 230 kts | 188° |
| 2026-04-25 04:04 | 10.99462 | 104.75154 | 11354 ft | 231 kts | 188° |
| 2026-04-25 04:04 | 10.97870 | 104.74884 | 11591 ft | 233 kts | 187° |
| 2026-04-25 04:04 | 10.96258 | 104.74612 | 11819 ft | 240 kts | 187° |
| 2026-04-25 04:05 | 10.94555 | 104.74329 | 11995 ft | 256 kts | 187° |
| 2026-04-25 04:05 | 10.92746 | 104.74027 | 12187 ft | 271 kts | 187° |
| 2026-04-25 04:05 | 10.90832 | 104.73706 | 12412 ft | 286 kts | 187° |
| 2026-04-25 04:05 | 10.88822 | 104.73368 | 12599 ft | 300 kts | 187° |
| 2026-04-25 04:06 | 10.86762 | 104.73022 | 12800 ft | 314 kts | 187° |
| 2026-04-25 04:06 | 10.84567 | 104.72653 | 13029 ft | 326 kts | 188° |
| 2026-04-25 04:06 | 10.82286 | 104.72270 | 13242 ft | 337 kts | 188° |
| 2026-04-25 04:06 | 10.79931 | 104.71874 | 13476 ft | 348 kts | 188° |
| 2026-04-25 04:07 | 10.77517 | 104.71468 | 13684 ft | 358 kts | 188° |
| 2026-04-25 04:07 | 10.75023 | 104.71048 | 13878 ft | 368 kts | 188° |
| 2026-04-25 04:07 | 10.72461 | 104.70618 | 14054 ft | 377 kts | 188° |
| 2026-04-25 04:07 | 10.69858 | 104.70181 | 14328 ft | 381 kts | 188° |
| 2026-04-25 04:08 | 10.67235 | 104.69741 | 14655 ft | 384 kts | 188° |
| 2026-04-25 04:08 | 10.64595 | 104.69298 | 15008 ft | 386 kts | 188° |
| 2026-04-25 04:08 | 10.61944 | 104.68853 | 15376 ft | 387 kts | 188° |
| 2026-04-25 04:08 | 10.59286 | 104.68407 | 15742 ft | 388 kts | 188° |
| 2026-04-25 04:09 | 10.56605 | 104.67958 | 16094 ft | 390 kts | 188° |
| 2026-04-25 04:09 | 10.53922 | 104.67508 | 16449 ft | 392 kts | 188° |
| 2026-04-25 04:09 | 10.51234 | 104.67054 | 16797 ft | 393 kts | 188° |
| 2026-04-25 04:09 | 10.48529 | 104.66573 | 17165 ft | 395 kts | 189° |
| 2026-04-25 04:10 | 10.45823 | 104.66080 | 17502 ft | 396 kts | 189° |
| 2026-04-25 04:10 | 10.43105 | 104.65581 | 17835 ft | 398 kts | 189° |
| 2026-04-25 04:10 | 10.40377 | 104.65082 | 18181 ft | 400 kts | 189° |
| 2026-04-25 04:10 | 10.37619 | 104.64581 | 18445 ft | 403 kts | 189° |
| 2026-04-25 04:11 | 10.32090 | 104.63584 | 19038 ft | 405 kts | 189° |
| 2026-04-25 04:11 | 10.29317 | 104.63085 | 19351 ft | 406 kts | 189° |
| 2026-04-25 04:11 | 10.26525 | 104.62585 | 19589 ft | 409 kts | 189° |
| 2026-04-25 04:12 | 10.23709 | 104.62081 | 19851 ft | 411 kts | 189° |
| 2026-04-25 04:12 | 10.20889 | 104.61575 | 20092 ft | 414 kts | 189° |
| 2026-04-25 04:12 | 10.18052 | 104.61067 | 20364 ft | 416 kts | 189° |
| 2026-04-25 04:12 | 10.15200 | 104.60556 | 20650 ft | 417 kts | 189° |
| 2026-04-25 04:13 | 10.12332 | 104.60042 | 20932 ft | 418 kts | 189° |
| 2026-04-25 04:13 | 10.09464 | 104.59528 | 21202 ft | 420 kts | 189° |
| 2026-04-25 04:13 | 10.06583 | 104.59011 | 21441 ft | 422 kts | 189° |
| 2026-04-25 04:13 | 10.03686 | 104.58500 | 21686 ft | 424 kts | 189° |
| 2026-04-25 04:14 | 10.00772 | 104.58004 | 21952 ft | 425 kts | 189° |
| 2026-04-25 04:14 | 9.97847 | 104.57513 | 22209 ft | 427 kts | 189° |
| 2026-04-25 04:14 | 9.94955 | 104.57029 | 22482 ft | 428 kts | 189° |
| 2026-04-25 04:14 | 9.92011 | 104.56536 | 22724 ft | 430 kts | 189° |
| 2026-04-25 04:15 | 9.89057 | 104.56040 | 22960 ft | 432 kts | 189° |
| 2026-04-25 04:15 | 9.86053 | 104.55534 | 23175 ft | 434 kts | 189° |
| 2026-04-25 04:15 | 9.83056 | 104.55027 | 23407 ft | 436 kts | 189° |
| 2026-04-25 04:15 | 9.80102 | 104.54528 | 23622 ft | 437 kts | 189° |
| 2026-04-25 04:16 | 9.77097 | 104.54020 | 23834 ft | 438 kts | 189° |
| 2026-04-25 04:16 | 9.74089 | 104.53512 | 24022 ft | 440 kts | 189° |
| 2026-04-25 04:16 | 9.71067 | 104.53001 | 24198 ft | 442 kts | 189° |
| 2026-04-25 04:16 | 9.68032 | 104.52489 | 24408 ft | 443 kts | 189° |
| 2026-04-25 04:17 | 9.64986 | 104.51974 | 24603 ft | 444 kts | 189° |
| 2026-04-25 04:17 | 9.61932 | 104.51458 | 24799 ft | 446 kts | 189° |
| 2026-04-25 04:17 | 9.58860 | 104.50940 | 25002 ft | 447 kts | 189° |
| 2026-04-25 04:17 | 9.55789 | 104.50422 | 25191 ft | 448 kts | 189° |
| 2026-04-25 04:18 | 9.52711 | 104.49902 | 25388 ft | 450 kts | 189° |
| 2026-04-25 04:18 | 9.49629 | 104.49382 | 25629 ft | 449 kts | 189° |
| 2026-04-25 04:18 | 9.46534 | 104.48860 | 25878 ft | 450 kts | 189° |
| 2026-04-25 04:18 | 9.43445 | 104.48339 | 26080 ft | 451 kts | 189° |
| 2026-04-25 04:19 | 9.40340 | 104.47816 | 26275 ft | 453 kts | 189° |
| 2026-04-25 04:19 | 9.37229 | 104.47291 | 26475 ft | 454 kts | 189° |
| 2026-04-25 04:19 | 9.34105 | 104.46765 | 26664 ft | 456 kts | 190° |
| 2026-04-25 04:19 | 9.30963 | 104.46235 | 26905 ft | 457 kts | 190° |
| 2026-04-25 04:20 | 9.27825 | 104.45707 | 27141 ft | 458 kts | 190° |
| 2026-04-25 04:20 | 9.24684 | 104.45177 | 27342 ft | 460 kts | 190° |
| 2026-04-25 04:20 | 9.21526 | 104.44645 | 27560 ft | 461 kts | 190° |
| 2026-04-25 04:20 | 9.18348 | 104.44110 | 27742 ft | 463 kts | 190° |
| 2026-04-25 04:21 | 9.15160 | 104.43573 | 27998 ft | 464 kts | 190° |
| 2026-04-25 04:21 | 9.11982 | 104.43039 | 28281 ft | 464 kts | 190° |
| 2026-04-25 04:21 | 9.08788 | 104.42501 | 28485 ft | 466 kts | 190° |
| 2026-04-25 04:21 | 9.05582 | 104.41962 | 28673 ft | 468 kts | 190° |
| 2026-04-25 04:22 | 9.02366 | 104.41421 | 28867 ft | 470 kts | 190° |
| 2026-04-25 04:22 | 9.00234 | 104.41062 | 29024 ft | 470 kts | 190° |
| 2026-04-25 04:22 | 8.95910 | 104.40335 | 29328 ft | 472 kts | 190° |
| 2026-04-25 04:22 | 8.93760 | 104.39974 | 29471 ft | 473 kts | 190° |
| 2026-04-25 04:23 | 8.90497 | 104.39425 | 29707 ft | 475 kts | 190° |
| 2026-04-25 04:23 | 8.87235 | 104.38877 | 29904 ft | 477 kts | 190° |
| 2026-04-25 04:23 | 8.83959 | 104.38326 | 30109 ft | 478 kts | 190° |
| 2026-04-25 04:23 | 8.80675 | 104.37774 | 30309 ft | 480 kts | 190° |
| 2026-04-25 04:24 | 8.77364 | 104.37218 | 30541 ft | 481 kts | 190° |
| 2026-04-25 04:24 | 8.74064 | 104.36664 | 30749 ft | 482 kts | 190° |
| 2026-04-25 04:24 | 8.70747 | 104.36107 | 30935 ft | 484 kts | 190° |
| 2026-04-25 04:24 | 8.67424 | 104.35549 | 31152 ft | 485 kts | 190° |
| 2026-04-25 04:25 | 8.64096 | 104.34990 | 31396 ft | 486 kts | 191° |
| 2026-04-25 04:25 | 8.60748 | 104.34428 | 31574 ft | 488 kts | 190° |
| 2026-04-25 04:25 | 8.57393 | 104.33865 | 31735 ft | 490 kts | 190° |
| 2026-04-25 04:25 | 8.54020 | 104.33299 | 31934 ft | 491 kts | 190° |
| 2026-04-25 04:26 | 8.50651 | 104.32734 | 32136 ft | 492 kts | 191° |
| 2026-04-25 04:26 | 8.47278 | 104.32168 | 32328 ft | 493 kts | 190° |
| 2026-04-25 04:26 | 8.44007 | 104.31619 | 32483 ft | 495 kts | 190° |
| 2026-04-25 04:26 | 8.40603 | 104.31049 | 32628 ft | 497 kts | 191° |
| 2026-04-25 04:27 | 8.37230 | 104.30483 | 32829 ft | 497 kts | 191° |
| 2026-04-25 04:27 | 8.33800 | 104.29908 | 32942 ft | 500 kts | 191° |
| 2026-04-25 04:27 | 8.30367 | 104.29333 | 33026 ft | 503 kts | 191° |
| 2026-04-25 04:27 | 8.26894 | 104.28751 | 33134 ft | 506 kts | 190° |
| 2026-04-25 04:28 | 8.23422 | 104.28169 | 33419 ft | 507 kts | 190° |
| 2026-04-25 04:28 | 8.19944 | 104.27587 | 33806 ft | 505 kts | 191° |
| 2026-04-25 04:28 | 8.16487 | 104.27008 | 34146 ft | 504 kts | 191° |
| 2026-04-25 04:28 | 8.13014 | 104.26427 | 34400 ft | 505 kts | 191° |
| 2026-04-25 04:29 | 8.09552 | 104.25848 | 34675 ft | 505 kts | 191° |
| 2026-04-25 04:29 | 8.06103 | 104.25270 | 35017 ft | 502 kts | 191° |
| 2026-04-25 04:29 | 8.02656 | 104.24694 | 35380 ft | 500 kts | 190° |
| 2026-04-25 04:29 | 7.99231 | 104.24121 | 35670 ft | 499 kts | 190° |
| 2026-04-25 04:30 | 7.95804 | 104.23547 | 35916 ft | 499 kts | 191° |
| 2026-04-25 04:30 | 7.92383 | 104.22975 | 36228 ft | 498 kts | 191° |
| 2026-04-25 04:30 | 7.88959 | 104.22403 | 36533 ft | 496 kts | 191° |
| 2026-04-25 04:30 | 7.85559 | 104.21834 | 36801 ft | 496 kts | 190° |
| 2026-04-25 04:31 | 7.82158 | 104.21265 | 37063 ft | 495 kts | 190° |
| 2026-04-25 04:31 | 7.78761 | 104.20698 | 37306 ft | 495 kts | 191° |
| 2026-04-25 04:31 | 7.75360 | 104.20129 | 37588 ft | 494 kts | 191° |
| 2026-04-25 04:31 | 7.71977 | 104.19564 | 37861 ft | 493 kts | 191° |
| 2026-04-25 04:32 | 7.68593 | 104.18999 | 38109 ft | 492 kts | 191° |
| 2026-04-25 04:32 | 7.65226 | 104.18436 | 38363 ft | 491 kts | 191° |
| 2026-04-25 04:32 | 7.61842 | 104.17871 | 38599 ft | 490 kts | 191° |
| 2026-04-25 04:32 | 7.58531 | 104.17318 | 38795 ft | 490 kts | 190° |
| 2026-04-25 04:33 | 7.55128 | 104.16750 | 38978 ft | 489 kts | 190° |
| 2026-04-25 04:33 | 7.51806 | 104.16196 | 39140 ft | 489 kts | 190° |
| 2026-04-25 04:33 | 7.48409 | 104.15629 | 39326 ft | 488 kts | 190° |
| 2026-04-25 04:33 | 7.45065 | 104.15071 | 39539 ft | 487 kts | 190° |
| 2026-04-25 04:34 | 7.41725 | 104.14514 | 39684 ft | 487 kts | 190° |
| 2026-04-25 04:34 | 7.38417 | 104.13962 | 39806 ft | 488 kts | 190° |
| 2026-04-25 04:34 | 7.35072 | 104.13404 | 39909 ft | 488 kts | 190° |
| 2026-04-25 04:35 | 7.28380 | 104.12295 | 39922 ft | 487 kts | 189° |
| 2026-04-25 04:35 | 7.21588 | 104.12054 | 40014 ft | 490 kts | 179° |
| 2026-04-25 04:35 | 7.18195 | 104.12188 | 40220 ft | 488 kts | 178° |
| 2026-04-25 04:36 | 7.14809 | 104.12357 | 40389 ft | 487 kts | 177° |
| 2026-04-25 04:36 | 7.11421 | 104.12542 | 40533 ft | 487 kts | 177° |
| 2026-04-25 04:36 | 7.08038 | 104.12730 | 40648 ft | 487 kts | 177° |
| 2026-04-25 04:37 | 7.01257 | 104.13114 | 40846 ft | 488 kts | 175° |
| 2026-04-25 04:37 | 6.94534 | 104.14035 | 40921 ft | 486 kts | 172° |
| 2026-04-25 04:38 | 6.87870 | 104.15104 | 40921 ft | 483 kts | 171° |
| 2026-04-25 04:38 | 6.81265 | 104.16187 | 40917 ft | 480 kts | 171° |
| 2026-04-25 04:39 | 6.74680 | 104.17259 | 40915 ft | 480 kts | 171° |
| 2026-04-25 04:39 | 6.68074 | 104.18328 | 40910 ft | 480 kts | 171° |
| 2026-04-25 04:40 | 6.61480 | 104.19393 | 40916 ft | 480 kts | 171° |
| 2026-04-25 04:40 | 6.54903 | 104.20455 | 40916 ft | 479 kts | 171° |
| 2026-04-25 04:41 | 6.48309 | 104.21520 | 40911 ft | 480 kts | 171° |
| 2026-04-25 04:41 | 6.41716 | 104.22584 | 40915 ft | 479 kts | 172° |
| 2026-04-25 04:42 | 6.35138 | 104.23646 | 40917 ft | 479 kts | 171° |
| 2026-04-25 04:42 | 6.28544 | 104.24709 | 40912 ft | 480 kts | 171° |
| 2026-04-25 04:43 | 6.21943 | 104.25775 | 40911 ft | 480 kts | 171° |
| 2026-04-25 04:43 | 6.15358 | 104.26837 | 40910 ft | 479 kts | 172° |
| 2026-04-25 04:44 | 6.08817 | 104.27891 | 40912 ft | 479 kts | 172° |
| 2026-04-25 04:44 | 6.02198 | 104.28958 | 40909 ft | 480 kts | 171° |
| 2026-04-25 04:45 | 5.95602 | 104.30021 | 40913 ft | 480 kts | 172° |
| 2026-04-25 04:45 | 5.89061 | 104.31075 | 40910 ft | 478 kts | 171° |
| 2026-04-25 04:46 | 5.82490 | 104.32134 | 40912 ft | 479 kts | 171° |
| 2026-04-25 04:46 | 5.75894 | 104.33195 | 40910 ft | 480 kts | 171° |
| 2026-04-25 04:47 | 5.69308 | 104.34256 | 40913 ft | 480 kts | 172° |
| 2026-04-25 04:47 | 5.62722 | 104.35316 | 40905 ft | 479 kts | 171° |
| 2026-04-25 04:48 | 5.56147 | 104.36374 | 40910 ft | 479 kts | 171° |
| 2026-04-25 04:48 | 5.49544 | 104.37436 | 40912 ft | 479 kts | 171° |
| 2026-04-25 04:49 | 5.42983 | 104.38492 | 40901 ft | 477 kts | 171° |
| 2026-04-25 04:49 | 5.36425 | 104.39547 | 40910 ft | 477 kts | 171° |
| 2026-04-25 04:50 | 5.29874 | 104.40600 | 40915 ft | 478 kts | 171° |
| 2026-04-25 04:50 | 5.23304 | 104.41656 | 40907 ft | 478 kts | 171° |
| 2026-04-25 04:51 | 5.16738 | 104.42711 | 40902 ft | 476 kts | 171° |
| 2026-04-25 04:51 | 5.10198 | 104.43762 | 40903 ft | 477 kts | 171° |
| 2026-04-25 04:52 | 5.03637 | 104.44816 | 40907 ft | 478 kts | 171° |
| 2026-04-25 04:52 | 4.97080 | 104.45870 | 40906 ft | 477 kts | 171° |
| 2026-04-25 04:53 | 4.90520 | 104.46923 | 40909 ft | 477 kts | 171° |
| 2026-04-25 04:53 | 4.83972 | 104.47940 | 40906 ft | 478 kts | 173° |
| 2026-04-25 04:54 | 4.77400 | 104.48732 | 40907 ft | 478 kts | 173° |
| 2026-04-25 04:54 | 4.70758 | 104.49550 | 40910 ft | 477 kts | 173° |
| 2026-04-25 04:55 | 4.64178 | 104.50374 | 40894 ft | 477 kts | 172° |
| 2026-04-25 04:55 | 4.57574 | 104.51206 | 40894 ft | 478 kts | 172° |
| 2026-04-25 04:56 | 4.50991 | 104.52036 | 40895 ft | 477 kts | 172° |
| 2026-04-25 04:56 | 4.44411 | 104.52865 | 40898 ft | 477 kts | 172° |
| 2026-04-25 04:57 | 4.37851 | 104.53693 | 40904 ft | 478 kts | 172° |
| 2026-04-25 04:57 | 4.31266 | 104.54523 | 40898 ft | 477 kts | 172° |
| 2026-04-25 04:58 | 4.24672 | 104.55355 | 40891 ft | 477 kts | 172° |
| 2026-04-25 04:58 | 4.18077 | 104.56158 | 40894 ft | 478 kts | 174° |
| 2026-04-25 04:59 | 4.11463 | 104.56774 | 40901 ft | 477 kts | 174° |
| 2026-04-25 04:59 | 4.04841 | 104.57405 | 40898 ft | 477 kts | 174° |
| 2026-04-25 05:00 | 3.98226 | 104.58047 | 40896 ft | 478 kts | 174° |
| 2026-04-25 05:00 | 3.91616 | 104.58692 | 40900 ft | 477 kts | 174° |
| 2026-04-25 05:01 | 3.85013 | 104.59338 | 40896 ft | 477 kts | 174° |
| 2026-04-25 05:01 | 3.78392 | 104.59986 | 40901 ft | 478 kts | 174° |
| 2026-04-25 05:02 | 3.71785 | 104.60640 | 40900 ft | 477 kts | 174° |
| 2026-04-25 05:02 | 3.65179 | 104.61285 | 40895 ft | 478 kts | 174° |
| 2026-04-25 05:03 | 3.58555 | 104.61933 | 40898 ft | 478 kts | 174° |
| 2026-04-25 05:03 | 3.51951 | 104.62581 | 40896 ft | 478 kts | 174° |
| 2026-04-25 05:04 | 3.45370 | 104.63227 | 40893 ft | 478 kts | 174° |
| 2026-04-25 05:04 | 3.38759 | 104.63875 | 40891 ft | 478 kts | 174° |
| 2026-04-25 05:05 | 3.32146 | 104.64524 | 40893 ft | 477 kts | 174° |
| 2026-04-25 05:05 | 3.25537 | 104.65172 | 40897 ft | 477 kts | 174° |
| 2026-04-25 05:06 | 3.18919 | 104.65822 | 40896 ft | 477 kts | 174° |
| 2026-04-25 05:06 | 3.12318 | 104.66469 | 40894 ft | 477 kts | 174° |
| 2026-04-25 05:06 | 3.09028 | 104.66682 | 40528 ft | 472 kts | 180° |
| 2026-04-25 05:07 | 3.05771 | 104.66277 | 39714 ft | 476 kts | 194° |
| 2026-04-25 05:07 | 3.02677 | 104.65070 | 38913 ft | 482 kts | 207° |
| 2026-04-25 05:07 | 2.99923 | 104.63122 | 38069 ft | 489 kts | 221° |
| 2026-04-25 05:07 | 2.97511 | 104.60681 | 37019 ft | 496 kts | 225° |
| 2026-04-25 05:08 | 2.95152 | 104.58133 | 35906 ft | 504 kts | 225° |
| 2026-04-25 05:08 | 2.92765 | 104.55553 | 34897 ft | 509 kts | 225° |
| 2026-04-25 05:08 | 2.90335 | 104.52940 | 33910 ft | 514 kts | 225° |
| 2026-04-25 05:08 | 2.87907 | 104.50335 | 32623 ft | 511 kts | 225° |
| 2026-04-25 05:09 | 2.85471 | 104.47726 | 30812 ft | 514 kts | 226° |
| 2026-04-25 05:09 | 2.83005 | 104.45089 | 28846 ft | 523 kts | 226° |
| 2026-04-25 05:09 | 2.80518 | 104.42429 | 27688 ft | 522 kts | 226° |
| 2026-04-25 05:09 | 2.78086 | 104.39827 | 27125 ft | 497 kts | 226° |
| 2026-04-25 05:10 | 2.75781 | 104.37361 | 26477 ft | 477 kts | 226° |
| 2026-04-25 05:10 | 2.73531 | 104.34956 | 25248 ft | 472 kts | 226° |
| 2026-04-25 05:10 | 2.72042 | 104.33366 | 24230 ft | 476 kts | 225° |
| 2026-04-25 05:10 | 2.69743 | 104.30913 | 23440 ft | 487 kts | 225° |
| 2026-04-25 05:11 | 2.66656 | 104.27616 | 22951 ft | 488 kts | 225° |
| 2026-04-25 05:11 | 2.64382 | 104.25185 | 22805 ft | 465 kts | 225° |
| 2026-04-25 05:11 | 2.62924 | 104.23625 | 22711 ft | 448 kts | 225° |
| 2026-04-25 05:12 | 2.58123 | 104.18496 | 22035 ft | 423 kts | 225° |
| 2026-04-25 05:12 | 2.56777 | 104.17059 | 21827 ft | 417 kts | 225° |
| 2026-04-25 05:12 | 2.54809 | 104.14958 | 21613 ft | 409 kts | 225° |
| 2026-04-25 05:12 | 2.52861 | 104.12887 | 21350 ft | 410 kts | 225° |
| 2026-04-25 05:13 | 2.50675 | 104.11135 | 20926 ft | 406 kts | 207° |
| 2026-04-25 05:13 | 2.48024 | 104.10218 | 20568 ft | 396 kts | 185° |
| 2026-04-25 05:13 | 2.45327 | 104.10156 | 20262 ft | 391 kts | 174° |
| 2026-04-25 05:13 | 2.42584 | 104.10289 | 19932 ft | 390 kts | 175° |
| 2026-04-25 05:14 | 2.39908 | 104.10380 | 19615 ft | 388 kts | 176° |
| 2026-04-25 05:14 | 2.37218 | 104.10433 | 19297 ft | 387 kts | 176° |
| 2026-04-25 05:14 | 2.34528 | 104.10463 | 18975 ft | 385 kts | 177° |
| 2026-04-25 05:15 | 2.29204 | 104.10488 | 18338 ft | 381 kts | 177° |
| 2026-04-25 05:15 | 2.26557 | 104.10494 | 18002 ft | 379 kts | 177° |
| 2026-04-25 05:15 | 2.23931 | 104.10497 | 17671 ft | 377 kts | 177° |
| 2026-04-25 05:15 | 2.21308 | 104.10498 | 17356 ft | 375 kts | 177° |
| 2026-04-25 05:16 | 2.18708 | 104.10499 | 17052 ft | 374 kts | 177° |
| 2026-04-25 05:16 | 2.16105 | 104.10500 | 16731 ft | 372 kts | 177° |
| 2026-04-25 05:16 | 2.13524 | 104.10500 | 16433 ft | 371 kts | 177° |
| 2026-04-25 05:16 | 2.10957 | 104.10500 | 16197 ft | 369 kts | 177° |
| 2026-04-25 05:17 | 2.08388 | 104.10500 | 15970 ft | 368 kts | 177° |
| 2026-04-25 05:17 | 2.05839 | 104.10500 | 15724 ft | 366 kts | 178° |
| 2026-04-25 05:17 | 2.03305 | 104.10499 | 15506 ft | 358 kts | 178° |
| 2026-04-25 05:17 | 2.00852 | 104.10498 | 15224 ft | 349 kts | 178° |
| 2026-04-25 05:18 | 1.98456 | 104.10498 | 14928 ft | 342 kts | 177° |
| 2026-04-25 05:18 | 1.96089 | 104.10500 | 14574 ft | 337 kts | 177° |
| 2026-04-25 05:18 | 1.93766 | 104.10513 | 14214 ft | 332 kts | 177° |
| 2026-04-25 05:18 | 1.91460 | 104.10527 | 13829 ft | 330 kts | 177° |
| 2026-04-25 05:19 | 1.89174 | 104.10539 | 13389 ft | 327 kts | 177° |
| 2026-04-25 05:19 | 1.86910 | 104.10551 | 13051 ft | 321 kts | 177° |
| 2026-04-25 05:19 | 1.84717 | 104.10560 | 12897 ft | 309 kts | 177° |
| 2026-04-25 05:19 | 1.82603 | 104.10569 | 12729 ft | 299 kts | 177° |
| 2026-04-25 05:20 | 1.80555 | 104.10577 | 12533 ft | 290 kts | 177° |
| 2026-04-25 05:20 | 1.78585 | 104.10587 | 12295 ft | 283 kts | 177° |
| 2026-04-25 05:20 | 1.76615 | 104.10596 | 12056 ft | 276 kts | 177° |
| 2026-04-25 05:20 | 1.74704 | 104.10605 | 11831 ft | 273 kts | 177° |
| 2026-04-25 05:21 | 1.72812 | 104.10615 | 11602 ft | 272 kts | 177° |
| 2026-04-25 05:21 | 1.70941 | 104.10624 | 11376 ft | 272 kts | 177° |
| 2026-04-25 05:21 | 1.69032 | 104.10633 | 11150 ft | 271 kts | 177° |
| 2026-04-25 05:21 | 1.67149 | 104.10641 | 10920 ft | 270 kts | 177° |
| 2026-04-25 05:22 | 1.65276 | 104.10650 | 10699 ft | 269 kts | 177° |
| 2026-04-25 05:22 | 1.63409 | 104.10658 | 10467 ft | 268 kts | 177° |
| 2026-04-25 05:22 | 1.61552 | 104.10703 | 10215 ft | 267 kts | 172° |
| 2026-04-25 05:22 | 1.59738 | 104.10924 | 10005 ft | 265 kts | 168° |
| 2026-04-25 05:23 | 1.57918 | 104.11194 | 9774 ft | 264 kts | 169° |
| 2026-04-25 05:23 | 1.56086 | 104.11468 | 9543 ft | 263 kts | 169° |
| 2026-04-25 05:23 | 1.54283 | 104.11735 | 9356 ft | 257 kts | 169° |
| 2026-04-25 05:23 | 1.52553 | 104.11988 | 9202 ft | 247 kts | 168° |
| 2026-04-25 05:24 | 1.50903 | 104.12230 | 9067 ft | 237 kts | 168° |
| 2026-04-25 05:24 | 1.49246 | 104.12474 | 8916 ft | 227 kts | 168° |
| 2026-04-25 05:24 | 1.47775 | 104.12689 | 8829 ft | 215 kts | 168° |
| 2026-04-25 05:24 | 1.46326 | 104.12860 | 8710 ft | 205 kts | 175° |
| 2026-04-25 05:25 | 1.44934 | 104.12667 | 8497 ft | 202 kts | 195° |
| 2026-04-25 05:25 | 1.43621 | 104.12159 | 8188 ft | 202 kts | 201° |
| 2026-04-25 05:25 | 1.42332 | 104.11602 | 7883 ft | 201 kts | 201° |
| 2026-04-25 05:25 | 1.41057 | 104.11052 | 7614 ft | 199 kts | 201° |
| 2026-04-25 05:26 | 1.39796 | 104.10511 | 7514 ft | 201 kts | 201° |
| 2026-04-25 05:26 | 1.38441 | 104.09937 | 7450 ft | 219 kts | 201° |
| 2026-04-25 05:26 | 1.37057 | 104.09347 | 7391 ft | 210 kts | 201° |
| 2026-04-25 05:26 | 1.35732 | 104.08783 | 7160 ft | 205 kts | 201° |
| 2026-04-25 05:27 | 1.34424 | 104.08229 | 6862 ft | 204 kts | 201° |
| 2026-04-25 05:27 | 1.33118 | 104.07676 | 6571 ft | 203 kts | 201° |
| 2026-04-25 05:27 | 1.31824 | 104.07128 | 6308 ft | 201 kts | 201° |
| 2026-04-25 05:27 | 1.30553 | 104.06589 | 6057 ft | 196 kts | 201° |
| 2026-04-25 05:28 | 1.29307 | 104.06062 | 5822 ft | 192 kts | 201° |
| 2026-04-25 05:28 | 1.28090 | 104.05546 | 5580 ft | 189 kts | 201° |
| 2026-04-25 05:28 | 1.26888 | 104.05037 | 5351 ft | 187 kts | 201° |
| 2026-04-25 05:28 | 1.25671 | 104.04523 | 5165 ft | 198 kts | 201° |
| 2026-04-25 05:29 | 1.24364 | 104.03971 | 5005 ft | 207 kts | 201° |
| 2026-04-25 05:29 | 1.23031 | 104.03407 | 4927 ft | 208 kts | 201° |
| 2026-04-25 05:29 | 1.21696 | 104.02841 | 4822 ft | 208 kts | 201° |
| 2026-04-25 05:29 | 1.20374 | 104.02280 | 4705 ft | 206 kts | 201° |
| 2026-04-25 05:30 | 1.19091 | 104.01736 | 4601 ft | 194 kts | 201° |
| 2026-04-25 05:30 | 1.17888 | 104.01223 | 4494 ft | 184 kts | 201° |
| 2026-04-25 05:30 | 1.16775 | 104.00601 | 4326 ft | 186 kts | 221° |
| 2026-04-25 05:30 | 1.16175 | 103.99485 | 4032 ft | 184 kts | 264° |
| 2026-04-25 05:31 | 1.16264 | 103.98224 | 3711 ft | 183 kts | 285° |
| 2026-04-25 05:31 | 1.16594 | 103.97007 | 3389 ft | 184 kts | 289° |
| 2026-04-25 05:31 | 1.16977 | 103.95787 | 3078 ft | 184 kts | 290° |
| 2026-04-25 05:31 | 1.17359 | 103.94589 | 2860 ft | 178 kts | 290° |
| 2026-04-25 05:32 | 1.17717 | 103.93445 | 2719 ft | 167 kts | 290° |
| 2026-04-25 05:32 | 1.18085 | 103.92401 | 2587 ft | 152 kts | 300° |
| 2026-04-25 05:32 | 1.18821 | 103.91788 | 2533 ft | 133 kts | 346° |
| 2026-04-25 05:32 | 1.19711 | 103.91783 | 2537 ft | 128 kts | 14° |
| 2026-04-25 05:33 | 1.20571 | 103.92022 | 2515 ft | 128 kts | 18° |
| 2026-04-25 05:33 | 1.21436 | 103.92216 | 2512 ft | 128 kts | 15° |
| 2026-04-25 05:33 | 1.22279 | 103.92503 | 2521 ft | 128 kts | 24° |
| 2026-04-25 05:33 | 1.23091 | 103.92836 | 2438 ft | 124 kts | 22° |
| 2026-04-25 05:34 | 1.23885 | 103.93140 | 2303 ft | 120 kts | 21° |
| 2026-04-25 05:34 | 1.24666 | 103.93442 | 2153 ft | 120 kts | 23° |
| 2026-04-25 05:34 | 1.25445 | 103.93754 | 1999 ft | 120 kts | 21° |
| 2026-04-25 05:34 | 1.26218 | 103.94073 | 1840 ft | 121 kts | 25° |
| 2026-04-25 05:35 | 1.26995 | 103.94403 | 1690 ft | 121 kts | 24° |
| 2026-04-25 05:35 | 1.27770 | 103.94729 | 1537 ft | 121 kts | 25° |
| 2026-04-25 05:35 | 1.28546 | 103.95056 | 1357 ft | 121 kts | 24° |
| 2026-04-25 05:35 | 1.29326 | 103.95385 | 1211 ft | 122 kts | 25° |
| 2026-04-25 05:36 | 1.30113 | 103.95719 | 1042 ft | 125 kts | 24° |
| 2026-04-25 05:36 | 1.30936 | 103.96068 | 879 ft | 131 kts | 25° |
| 2026-04-25 05:36 | 1.31766 | 103.96420 | 721 ft | 131 kts | 24° |
| 2026-04-25 05:36 | 1.32607 | 103.96776 | 550 ft | 132 kts | 24° |
| 2026-04-25 05:37 | 1.33448 | 103.97134 | 372 ft | 130 kts | 22° |
| 2026-04-25 05:37 | 1.34290 | 103.97490 | 221 ft | 135 kts | 23° |
| 2026-04-25 05:37 | 1.35152 | 103.97857 | 38 ft | 132 kts | 21° |
| 2026-04-25 05:37 | 1.35881 | 103.98162 | 37 ft | 94 kts | 22° |
| 2026-04-25 05:38 | 1.36355 | 103.98363 | 37 ft | 56 kts | 23° |
| 2026-04-25 05:38 | 1.36601 | 103.98476 | 37 ft | 26 kts | 34° |
| 2026-04-25 05:38 | 1.36711 | 103.98575 | 37 ft | 11 kts | 50° |
| 2026-04-25 05:38 | 1.36750 | 103.98634 | 37 ft | 10 kts | 74° |
| 2026-04-25 05:39 | 1.36717 | 103.98690 | 37 ft | 10 kts | 161° |
| 2026-04-25 05:39 | 1.36645 | 103.98677 | 37 ft | 11 kts | 196° |
| 2026-04-25 05:39 | 1.36578 | 103.98649 | 37 ft | 11 kts | 204° |
| 2026-04-25 05:39 | 1.36499 | 103.98614 | 37 ft | 14 kts | 203° |
| 2026-04-25 05:40 | 1.36400 | 103.98573 | 37 ft | 17 kts | 203° |
| 2026-04-25 05:40 | 1.36285 | 103.98521 | 37 ft | 19 kts | 204° |
| 2026-04-25 05:40 | 1.36153 | 103.98470 | 37 ft | 21 kts | 202° |
| 2026-04-25 05:40 | 1.36008 | 103.98409 | 37 ft | 24 kts | 202° |
| 2026-04-25 05:41 | 1.35849 | 103.98342 | 37 ft | 26 kts | 203° |
| 2026-04-25 05:41 | 1.35676 | 103.98269 | 37 ft | 28 kts | 203° |
| 2026-04-25 05:41 | 1.35501 | 103.98195 | 37 ft | 27 kts | 203° |
| 2026-04-25 05:41 | 1.35320 | 103.98119 | 37 ft | 29 kts | 202° |
| 2026-04-25 05:42 | 1.35142 | 103.98044 | 37 ft | 24 kts | 203° |
| 2026-04-25 05:42 | 1.34987 | 103.97979 | 37 ft | 24 kts | 203° |
| 2026-04-25 05:42 | 1.34888 | 103.97937 | 37 ft | 9 kts | 201° |
| 2026-04-25 05:42 | 1.34828 | 103.97949 | 37 ft | 10 kts | 134° |
| 2026-04-25 05:43 | 1.34788 | 103.98037 | 37 ft | 20 kts | 113° |
| 2026-04-25 05:43 | 1.34729 | 103.98171 | 37 ft | 22 kts | 113° |
| 2026-04-25 05:43 | 1.34672 | 103.98307 | 46 ft | 18 kts | 114° |
| 2026-04-25 05:43 | 1.34626 | 103.98414 | 47 ft | 17 kts | 113° |
| 2026-04-25 05:44 | 1.34584 | 103.98513 | 45 ft | 11 kts | 113° |
| 2026-04-25 05:44 | 1.34540 | 103.98615 | 37 ft | 14 kts | 111° |
| 2026-04-25 05:44 | 1.34528 | 103.98673 | 37 ft | 8 kts | 73° |
| 2026-04-25 05:44 | 1.34570 | 103.98713 | 37 ft | 10 kts | 29° |
| 2026-04-25 05:45 | 1.34641 | 103.98747 | 37 ft | 13 kts | 25° |
| 2026-04-25 05:45 | 1.34730 | 103.98781 | 37 ft | 15 kts | 22° |
| 2026-04-25 05:45 | 1.34831 | 103.98824 | 37 ft | 17 kts | 23° |
| 2026-04-25 05:45 | 1.34940 | 103.98869 | 37 ft | 17 kts | 22° |
| 2026-04-25 05:46 | 1.34993 | 103.98890 | 37 ft | 5 kts | 6° |
| 2026-04-25 05:46 | 1.35015 | 103.98872 | 35 ft | 5 kts | 309° |
| 2026-04-25 05:46 | 1.35033 | 103.98842 | 37 ft | 2 kts | 296° |
| 2026-04-25 05:46 | 1.35035 | 103.98837 | 37 ft | 4 kts | 294° |
| 2026-04-25 05:47 | 1.35040 | 103.98826 | 37 ft | 0 kts | 293° |